sensor_id;sensor_type;location;lat;lon;timestamp;temperature;humidity
1936;DHT22;969;49.892;10.896;2023-07-20T00:00:25;26.70;50.50
1936;DHT22;969;49.892;10.896;2023-07-20T00:02:51;26.70;50.60
1936;DHT22;969;49.892;10.896;2023-07-20T00:05:17;26.70;50.60
1936;DHT22;969;49.892;10.896;2023-07-20T00:07:47;26.70;51.10
1936;DHT22;969;49.892;10.896;2023-07-20T00:10:12;26.70;50.60
1936;DHT22;969;49.892;10.896;2023-07-20T00:12:38;26.70;50.60
1936;DHT22;969;49.892;10.896;2023-07-20T00:15:04;26.70;50.70
1936;DHT22;969;49.892;10.896;2023-07-20T00:17:30;26.70;50.60
1936;DHT22;969;49.892;10.896;2023-07-20T00:19:55;26.70;50.60
1936;DHT22;969;49.892;10.896;2023-07-20T00:22:21;26.70;50.70
1936;DHT22;969;49.892;10.896;2023-07-20T00:24:46;26.70;50.60
1936;DHT22;969;49.892;10.896;2023-07-20T00:27:12;26.70;50.60
1936;DHT22;969;49.892;10.896;2023-07-20T00:29:38;26.70;50.60
1936;DHT22;969;49.892;10.896;2023-07-20T00:32:04;26.70;50.60
1936;DHT22;969;49.892;10.896;2023-07-20T00:34:30;26.70;50.50
1936;DHT22;969;49.892;10.896;2023-07-20T00:36:56;26.70;50.60
1936;DHT22;969;49.892;10.896;2023-07-20T00:39:22;26.70;50.50
1936;DHT22;969;49.892;10.896;2023-07-20T00:41:47;26.70;50.50
1936;DHT22;969;49.892;10.896;2023-07-20T00:44:13;26.70;50.60
1936;DHT22;969;49.892;10.896;2023-07-20T00:46:39;26.70;50.60
1936;DHT22;969;49.892;10.896;2023-07-20T00:49:07;26.70;50.60
1936;DHT22;969;49.892;10.896;2023-07-20T00:51:33;26.70;50.60
1936;DHT22;969;49.892;10.896;2023-07-20T00:53:59;26.70;50.50
1936;DHT22;969;49.892;10.896;2023-07-20T00:56:24;26.70;50.60
1936;DHT22;969;49.892;10.896;2023-07-20T00:58:51;26.70;50.50
1936;DHT22;969;49.892;10.896;2023-07-20T01:01:17;26.70;50.50
1936;DHT22;969;49.892;10.896;2023-07-20T01:03:43;26.70;50.60
1936;DHT22;969;49.892;10.896;2023-07-20T01:06:33;26.70;50.60
1936;DHT22;969;49.892;10.896;2023-07-20T01:09:14;26.70;50.50
1936;DHT22;969;49.892;10.896;2023-07-20T01:11:59;26.70;50.50
1936;DHT22;969;49.892;10.896;2023-07-20T01:14:25;26.70;50.60
1936;DHT22;969;49.892;10.896;2023-07-20T01:16:51;26.70;50.60
1936;DHT22;969;49.892;10.896;2023-07-20T01:19:17;26.70;50.60
1936;DHT22;969;49.892;10.896;2023-07-20T01:21:51;26.70;50.60
1936;DHT22;969;49.892;10.896;2023-07-20T01:32:31;26.70;50.70
1936;DHT22;969;49.892;10.896;2023-07-20T01:34:58;26.70;50.70
1936;DHT22;969;49.892;10.896;2023-07-20T01:37:25;26.70;50.70
1936;DHT22;969;49.892;10.896;2023-07-20T01:39:55;26.70;50.70
1936;DHT22;969;49.892;10.896;2023-07-20T01:42:24;26.70;50.70
1936;DHT22;969;49.892;10.896;2023-07-20T01:44:53;26.70;50.70
1936;DHT22;969;49.892;10.896;2023-07-20T01:47:19;26.70;50.70
1936;DHT22;969;49.892;10.896;2023-07-20T01:49:45;26.70;50.70
1936;DHT22;969;49.892;10.896;2023-07-20T01:52:10;26.70;50.70
1936;DHT22;969;49.892;10.896;2023-07-20T01:54:36;26.70;50.80
1936;DHT22;969;49.892;10.896;2023-07-20T01:57:02;26.60;50.70
1936;DHT22;969;49.892;10.896;2023-07-20T01:59:28;26.60;50.80
1936;DHT22;969;49.892;10.896;2023-07-20T02:01:53;26.70;50.80
1936;DHT22;969;49.892;10.896;2023-07-20T02:04:19;26.70;50.80
1936;DHT22;969;49.892;10.896;2023-07-20T02:06:44;26.70;50.70
1936;DHT22;969;49.892;10.896;2023-07-20T02:09:10;26.60;50.80
1936;DHT22;969;49.892;10.896;2023-07-20T02:11:36;26.60;50.90
1936;DHT22;969;49.892;10.896;2023-07-20T02:14:01;26.60;50.90
1936;DHT22;969;49.892;10.896;2023-07-20T02:16:27;26.60;51.00
1936;DHT22;969;49.892;10.896;2023-07-20T02:18:52;26.70;51.10
1936;DHT22;969;49.892;10.896;2023-07-20T02:21:18;26.60;50.70
1936;DHT22;969;49.892;10.896;2023-07-20T02:23:44;26.70;51.10
1936;DHT22;969;49.892;10.896;2023-07-20T02:26:09;26.70;51.10
1936;DHT22;969;49.892;10.896;2023-07-20T02:28:35;26.60;51.00
1936;DHT22;969;49.892;10.896;2023-07-20T02:31:00;26.60;51.00
1936;DHT22;969;49.892;10.896;2023-07-20T02:33:26;26.60;51.00
1936;DHT22;969;49.892;10.896;2023-07-20T02:35:52;26.70;51.10
1936;DHT22;969;49.892;10.896;2023-07-20T02:38:17;26.70;51.10
1936;DHT22;969;49.892;10.896;2023-07-20T02:40:43;26.70;51.10
1936;DHT22;969;49.892;10.896;2023-07-20T02:43:09;26.70;51.00
1936;DHT22;969;49.892;10.896;2023-07-20T02:45:35;26.70;51.10
1936;DHT22;969;49.892;10.896;2023-07-20T02:48:01;26.60;51.00
1936;DHT22;969;49.892;10.896;2023-07-20T02:50:26;26.60;51.00
1936;DHT22;969;49.892;10.896;2023-07-20T02:52:52;26.60;51.10
1936;DHT22;969;49.892;10.896;2023-07-20T02:55:17;26.70;51.10
1936;DHT22;969;49.892;10.896;2023-07-20T02:57:43;26.60;51.10
1936;DHT22;969;49.892;10.896;2023-07-20T03:00:09;26.60;51.60
1936;DHT22;969;49.892;10.896;2023-07-20T03:02:36;26.60;51.10
1936;DHT22;969;49.892;10.896;2023-07-20T03:05:01;26.70;51.20
1936;DHT22;969;49.892;10.896;2023-07-20T03:07:28;26.60;51.10
1936;DHT22;969;49.892;10.896;2023-07-20T03:09:54;26.60;51.10
1936;DHT22;969;49.892;10.896;2023-07-20T03:12:20;26.70;51.20
1936;DHT22;969;49.892;10.896;2023-07-20T03:14:46;26.60;51.10
1936;DHT22;969;49.892;10.896;2023-07-20T03:17:12;26.60;51.10
1936;DHT22;969;49.892;10.896;2023-07-20T03:19:37;26.60;51.20
1936;DHT22;969;49.892;10.896;2023-07-20T03:22:03;26.60;51.20
1936;DHT22;969;49.892;10.896;2023-07-20T03:24:28;26.60;51.10
1936;DHT22;969;49.892;10.896;2023-07-20T03:26:54;26.60;51.80
1936;DHT22;969;49.892;10.896;2023-07-20T03:29:20;26.60;51.10
1936;DHT22;969;49.892;10.896;2023-07-20T03:31:45;26.60;51.10
1936;DHT22;969;49.892;10.896;2023-07-20T03:34:11;26.60;51.20
1936;DHT22;969;49.892;10.896;2023-07-20T03:36:36;26.60;51.10
1936;DHT22;969;49.892;10.896;2023-07-20T03:39:02;26.60;51.10
1936;DHT22;969;49.892;10.896;2023-07-20T03:41:28;26.60;51.10
1936;DHT22;969;49.892;10.896;2023-07-20T03:43:54;26.60;51.10
1936;DHT22;969;49.892;10.896;2023-07-20T03:46:19;26.60;51.10
1936;DHT22;969;49.892;10.896;2023-07-20T03:48:45;26.60;51.00
1936;DHT22;969;49.892;10.896;2023-07-20T03:51:11;26.60;51.10
1936;DHT22;969;49.892;10.896;2023-07-20T03:53:36;26.60;51.00
1936;DHT22;969;49.892;10.896;2023-07-20T03:56:02;26.60;51.00
1936;DHT22;969;49.892;10.896;2023-07-20T03:58:27;26.60;50.90
1936;DHT22;969;49.892;10.896;2023-07-20T04:00:55;26.60;50.80
1936;DHT22;969;49.892;10.896;2023-07-20T04:03:21;26.60;50.80
1936;DHT22;969;49.892;10.896;2023-07-20T04:05:48;26.50;50.70
1936;DHT22;969;49.892;10.896;2023-07-20T04:08:13;26.50;50.70
1936;DHT22;969;49.892;10.896;2023-07-20T04:10:42;26.60;51.40
1936;DHT22;969;49.892;10.896;2023-07-20T04:13:08;26.60;51.40
1936;DHT22;969;49.892;10.896;2023-07-20T04:15:33;26.60;50.90
1936;DHT22;969;49.892;10.896;2023-07-20T04:17:59;26.50;50.90
1936;DHT22;969;49.892;10.896;2023-07-20T04:20:26;26.50;50.90
1936;DHT22;969;49.892;10.896;2023-07-20T04:22:51;26.50;51.00
1936;DHT22;969;49.892;10.896;2023-07-20T04:25:20;26.50;51.00
1936;DHT22;969;49.892;10.896;2023-07-20T04:27:45;26.50;51.50
1936;DHT22;969;49.892;10.896;2023-07-20T04:30:12;26.50;50.90
1936;DHT22;969;49.892;10.896;2023-07-20T04:32:38;26.50;50.80
1936;DHT22;969;49.892;10.896;2023-07-20T04:35:09;26.50;50.80
1936;DHT22;969;49.892;10.896;2023-07-20T04:37:35;26.50;50.70
1936;DHT22;969;49.892;10.896;2023-07-20T04:40:01;26.50;50.70
1936;DHT22;969;49.892;10.896;2023-07-20T04:42:27;26.50;50.60
1936;DHT22;969;49.892;10.896;2023-07-20T04:44:52;26.50;50.70
1936;DHT22;969;49.892;10.896;2023-07-20T04:47:18;26.50;50.70
1936;DHT22;969;49.892;10.896;2023-07-20T04:49:43;26.50;50.70
1936;DHT22;969;49.892;10.896;2023-07-20T04:52:09;26.50;50.70
1936;DHT22;969;49.892;10.896;2023-07-20T04:54:34;26.50;50.80
1936;DHT22;969;49.892;10.896;2023-07-20T04:57:00;26.50;50.80
1936;DHT22;969;49.892;10.896;2023-07-20T04:59:25;26.50;50.80
1936;DHT22;969;49.892;10.896;2023-07-20T05:01:51;26.50;50.80
1936;DHT22;969;49.892;10.896;2023-07-20T05:04:16;26.50;50.80
1936;DHT22;969;49.892;10.896;2023-07-20T05:06:42;26.50;50.90
1936;DHT22;969;49.892;10.896;2023-07-20T05:09:08;26.50;50.90
1936;DHT22;969;49.892;10.896;2023-07-20T05:11:34;26.50;50.80
1936;DHT22;969;49.892;10.896;2023-07-20T05:14:00;26.50;50.90
1936;DHT22;969;49.892;10.896;2023-07-20T05:16:25;26.50;50.90
1936;DHT22;969;49.892;10.896;2023-07-20T05:18:51;26.50;50.80
1936;DHT22;969;49.892;10.896;2023-07-20T05:21:17;26.50;50.80
1936;DHT22;969;49.892;10.896;2023-07-20T05:23:42;26.50;50.80
1936;DHT22;969;49.892;10.896;2023-07-20T05:26:08;26.50;50.70
1936;DHT22;969;49.892;10.896;2023-07-20T05:28:34;26.50;50.70
1936;DHT22;969;49.892;10.896;2023-07-20T05:31:02;26.40;50.60
1936;DHT22;969;49.892;10.896;2023-07-20T05:33:28;26.40;50.50
1936;DHT22;969;49.892;10.896;2023-07-20T05:35:54;26.40;50.40
1936;DHT22;969;49.892;10.896;2023-07-20T05:38:19;26.40;50.40
1936;DHT22;969;49.892;10.896;2023-07-20T05:40:45;26.40;50.30
1936;DHT22;969;49.892;10.896;2023-07-20T05:43:12;26.40;50.30
1936;DHT22;969;49.892;10.896;2023-07-20T05:45:41;26.40;50.20
1936;DHT22;969;49.892;10.896;2023-07-20T05:48:07;26.40;50.10
1936;DHT22;969;49.892;10.896;2023-07-20T05:50:35;26.40;50.10
1936;DHT22;969;49.892;10.896;2023-07-20T05:53:00;26.40;50.00
1936;DHT22;969;49.892;10.896;2023-07-20T05:55:26;26.30;50.30
1936;DHT22;969;49.892;10.896;2023-07-20T05:57:51;26.40;49.80
1936;DHT22;969;49.892;10.896;2023-07-20T06:00:17;26.30;49.70
1936;DHT22;969;49.892;10.896;2023-07-20T06:02:44;26.30;49.60
1936;DHT22;969;49.892;10.896;2023-07-20T06:05:10;26.30;49.50
1936;DHT22;969;49.892;10.896;2023-07-20T06:07:37;26.30;49.50
1936;DHT22;969;49.892;10.896;2023-07-20T06:10:03;26.30;49.40
1936;DHT22;969;49.892;10.896;2023-07-20T06:12:29;26.30;49.40
1936;DHT22;969;49.892;10.896;2023-07-20T06:14:54;26.30;49.40
1936;DHT22;969;49.892;10.896;2023-07-20T06:17:20;26.30;49.40
1936;DHT22;969;49.892;10.896;2023-07-20T06:19:46;26.40;49.40
1936;DHT22;969;49.892;10.896;2023-07-20T06:22:11;26.30;49.20
1936;DHT22;969;49.892;10.896;2023-07-20T06:24:37;26.30;49.00
1936;DHT22;969;49.892;10.896;2023-07-20T06:27:03;26.30;49.40
1936;DHT22;969;49.892;10.896;2023-07-20T06:29:31;26.30;48.80
1936;DHT22;969;49.892;10.896;2023-07-20T06:31:56;26.30;48.60
1936;DHT22;969;49.892;10.896;2023-07-20T06:34:22;26.30;48.40
1936;DHT22;969;49.892;10.896;2023-07-20T06:36:47;26.20;48.30
1936;DHT22;969;49.892;10.896;2023-07-20T06:39:13;26.20;48.20
1936;DHT22;969;49.892;10.896;2023-07-20T06:41:39;26.20;48.70
1936;DHT22;969;49.892;10.896;2023-07-20T06:44:05;26.20;48.10
1936;DHT22;969;49.892;10.896;2023-07-20T06:46:30;26.20;47.90
1936;DHT22;969;49.892;10.896;2023-07-20T06:48:56;26.10;47.70
1936;DHT22;969;49.892;10.896;2023-07-20T06:51:22;26.10;47.60
1936;DHT22;969;49.892;10.896;2023-07-20T06:53:48;26.10;47.70
1936;DHT22;969;49.892;10.896;2023-07-20T06:56:14;26.10;47.70
1936;DHT22;969;49.892;10.896;2023-07-20T06:58:40;26.00;47.50
1936;DHT22;969;49.892;10.896;2023-07-20T07:01:08;26.00;47.60
1936;DHT22;969;49.892;10.896;2023-07-20T07:03:34;26.00;47.60
1936;DHT22;969;49.892;10.896;2023-07-20T07:06:00;26.00;47.60
1936;DHT22;969;49.892;10.896;2023-07-20T07:08:26;25.90;47.30
1936;DHT22;969;49.892;10.896;2023-07-20T07:10:52;26.00;47.50
1936;DHT22;969;49.892;10.896;2023-07-20T07:13:18;26.00;47.40
1936;DHT22;969;49.892;10.896;2023-07-20T07:15:44;25.90;47.10
1936;DHT22;969;49.892;10.896;2023-07-20T07:18:10;25.90;47.20
1936;DHT22;969;49.892;10.896;2023-07-20T07:20:35;25.90;47.30
1936;DHT22;969;49.892;10.896;2023-07-20T07:23:01;25.90;47.20
1936;DHT22;969;49.892;10.896;2023-07-20T07:25:27;25.90;47.20
1936;DHT22;969;49.892;10.896;2023-07-20T07:27:53;25.90;47.20
1936;DHT22;969;49.892;10.896;2023-07-20T07:30:20;25.90;47.20
1936;DHT22;969;49.892;10.896;2023-07-20T07:32:46;25.90;47.30
1936;DHT22;969;49.892;10.896;2023-07-20T07:35:12;25.90;47.20
1936;DHT22;969;49.892;10.896;2023-07-20T07:37:38;25.90;47.30
1936;DHT22;969;49.892;10.896;2023-07-20T07:40:04;26.00;47.40
1936;DHT22;969;49.892;10.896;2023-07-20T07:42:31;26.00;47.40
1936;DHT22;969;49.892;10.896;2023-07-20T07:44:57;26.00;47.40
1936;DHT22;969;49.892;10.896;2023-07-20T07:47:22;26.00;47.90
1936;DHT22;969;49.892;10.896;2023-07-20T07:49:48;26.00;47.30
1936;DHT22;969;49.892;10.896;2023-07-20T07:52:13;26.00;47.20
1936;DHT22;969;49.892;10.896;2023-07-20T07:54:39;26.00;47.00
1936;DHT22;969;49.892;10.896;2023-07-20T07:57:05;26.00;47.00
1936;DHT22;969;49.892;10.896;2023-07-20T07:59:31;26.00;47.10
1936;DHT22;969;49.892;10.896;2023-07-20T08:02:02;26.00;47.00
1936;DHT22;969;49.892;10.896;2023-07-20T08:04:28;26.00;47.00
1936;DHT22;969;49.892;10.896;2023-07-20T08:06:53;26.00;47.10
1936;DHT22;969;49.892;10.896;2023-07-20T08:09:19;26.00;47.20
1936;DHT22;969;49.892;10.896;2023-07-20T08:11:45;26.00;47.10
1936;DHT22;969;49.892;10.896;2023-07-20T08:14:10;26.00;47.20
1936;DHT22;969;49.892;10.896;2023-07-20T08:16:36;26.10;47.20
1936;DHT22;969;49.892;10.896;2023-07-20T08:19:01;26.00;47.00
1936;DHT22;969;49.892;10.896;2023-07-20T08:21:27;26.10;47.00
1936;DHT22;969;49.892;10.896;2023-07-20T08:23:53;26.10;46.90
1936;DHT22;969;49.892;10.896;2023-07-20T08:26:19;26.10;46.90
1936;DHT22;969;49.892;10.896;2023-07-20T08:28:47;26.10;46.70
1936;DHT22;969;49.892;10.896;2023-07-20T08:31:13;26.10;46.60
1936;DHT22;969;49.892;10.896;2023-07-20T08:33:39;26.10;46.50
1936;DHT22;969;49.892;10.896;2023-07-20T08:36:05;26.10;46.40
1936;DHT22;969;49.892;10.896;2023-07-20T08:38:31;26.10;46.40
1936;DHT22;969;49.892;10.896;2023-07-20T08:40:57;26.10;46.40
1936;DHT22;969;49.892;10.896;2023-07-20T08:43:25;26.10;46.50
1936;DHT22;969;49.892;10.896;2023-07-20T08:45:52;26.10;46.40
1936;DHT22;969;49.892;10.896;2023-07-20T08:48:20;26.10;46.90
1936;DHT22;969;49.892;10.896;2023-07-20T08:50:49;26.10;46.30
1936;DHT22;969;49.892;10.896;2023-07-20T08:53:16;26.10;46.10
1936;DHT22;969;49.892;10.896;2023-07-20T08:55:44;26.20;46.20
1936;DHT22;969;49.892;10.896;2023-07-20T08:58:12;26.10;46.10
1936;DHT22;969;49.892;10.896;2023-07-20T09:00:41;26.10;46.10
1936;DHT22;969;49.892;10.896;2023-07-20T09:03:07;26.10;46.10
1936;DHT22;969;49.892;10.896;2023-07-20T09:05:33;26.20;46.20
1936;DHT22;969;49.892;10.896;2023-07-20T09:08:00;26.20;46.30
1936;DHT22;969;49.892;10.896;2023-07-20T09:10:27;26.20;46.10
1936;DHT22;969;49.892;10.896;2023-07-20T09:12:53;26.20;46.20
1936;DHT22;969;49.892;10.896;2023-07-20T09:15:21;26.20;46.20
1936;DHT22;969;49.892;10.896;2023-07-20T09:17:48;26.20;46.20
1936;DHT22;969;49.892;10.896;2023-07-20T09:20:15;26.20;46.20
1936;DHT22;969;49.892;10.896;2023-07-20T09:22:42;26.30;46.00
1936;DHT22;969;49.892;10.896;2023-07-20T09:25:15;26.20;46.00
1936;DHT22;969;49.892;10.896;2023-07-20T09:27:42;26.30;46.10
1936;DHT22;969;49.892;10.896;2023-07-20T09:30:08;26.30;46.10
1936;DHT22;969;49.892;10.896;2023-07-20T09:32:40;26.30;46.00
1936;DHT22;969;49.892;10.896;2023-07-20T09:35:10;26.30;45.90
1936;DHT22;969;49.892;10.896;2023-07-20T09:37:37;26.20;45.80
1936;DHT22;969;49.892;10.896;2023-07-20T09:40:06;26.20;45.70
1936;DHT22;969;49.892;10.896;2023-07-20T09:42:35;26.30;45.90
1936;DHT22;969;49.892;10.896;2023-07-20T09:45:02;26.20;45.80
1936;DHT22;969;49.892;10.896;2023-07-20T09:47:27;26.20;45.80
1936;DHT22;969;49.892;10.896;2023-07-20T09:50:00;26.20;45.90
1936;DHT22;969;49.892;10.896;2023-07-20T09:52:26;26.20;45.90
1936;DHT22;969;49.892;10.896;2023-07-20T09:54:52;26.20;45.90
1936;DHT22;969;49.892;10.896;2023-07-20T09:57:21;26.20;45.90
1936;DHT22;969;49.892;10.896;2023-07-20T09:59:46;26.20;46.00
1936;DHT22;969;49.892;10.896;2023-07-20T10:02:25;26.20;46.00
1936;DHT22;969;49.892;10.896;2023-07-20T10:04:53;26.20;46.10
1936;DHT22;969;49.892;10.896;2023-07-20T10:07:19;26.20;46.60
1936;DHT22;969;49.892;10.896;2023-07-20T10:09:48;26.20;46.10
1936;DHT22;969;49.892;10.896;2023-07-20T10:12:16;26.20;46.20
1936;DHT22;969;49.892;10.896;2023-07-20T10:14:49;26.30;46.20
1936;DHT22;969;49.892;10.896;2023-07-20T10:17:17;26.20;46.20
1936;DHT22;969;49.892;10.896;2023-07-20T10:19:48;26.30;46.10
1936;DHT22;969;49.892;10.896;2023-07-20T10:22:19;26.30;46.00
1936;DHT22;969;49.892;10.896;2023-07-20T10:24:50;26.30;46.00
1936;DHT22;969;49.892;10.896;2023-07-20T10:27:22;26.30;45.90
1936;DHT22;969;49.892;10.896;2023-07-20T10:29:48;26.30;45.90
1936;DHT22;969;49.892;10.896;2023-07-20T10:32:14;26.30;46.00
1936;DHT22;969;49.892;10.896;2023-07-20T10:34:40;26.30;45.90
1936;DHT22;969;49.892;10.896;2023-07-20T10:37:05;26.40;45.90
1936;DHT22;969;49.892;10.896;2023-07-20T10:39:32;26.30;45.60
1936;DHT22;969;49.892;10.896;2023-07-20T10:42:09;26.40;45.70
1936;DHT22;969;49.892;10.896;2023-07-20T10:44:37;26.40;45.50
1936;DHT22;969;49.892;10.896;2023-07-20T10:47:09;26.30;45.40
1936;DHT22;969;49.892;10.896;2023-07-20T10:49:35;26.30;45.50
1936;DHT22;969;49.892;10.896;2023-07-20T10:52:05;26.30;45.40
1936;DHT22;969;49.892;10.896;2023-07-20T10:56:57;26.30;45.10
1936;DHT22;969;49.892;10.896;2023-07-20T11:01:49;26.30;45.10
1936;DHT22;969;49.892;10.896;2023-07-20T11:04:16;26.30;45.10
1936;DHT22;969;49.892;10.896;2023-07-20T11:06:45;26.30;45.10
1936;DHT22;969;49.892;10.896;2023-07-20T11:09:14;26.30;45.20
1936;DHT22;969;49.892;10.896;2023-07-20T11:11:42;26.30;45.20
1936;DHT22;969;49.892;10.896;2023-07-20T11:14:09;26.30;45.10
1936;DHT22;969;49.892;10.896;2023-07-20T11:16:47;26.20;45.10
1936;DHT22;969;49.892;10.896;2023-07-20T11:21:42;26.30;45.10
1936;DHT22;969;49.892;10.896;2023-07-20T11:24:08;26.30;45.00
1936;DHT22;969;49.892;10.896;2023-07-20T11:27:01;26.30;45.10
1936;DHT22;969;49.892;10.896;2023-07-20T11:29:26;26.30;45.00
1936;DHT22;969;49.892;10.896;2023-07-20T11:31:52;26.30;45.10
1936;DHT22;969;49.892;10.896;2023-07-20T11:34:19;26.30;45.00
1936;DHT22;969;49.892;10.896;2023-07-20T11:36:47;26.30;44.90
1936;DHT22;969;49.892;10.896;2023-07-20T11:39:15;26.30;44.80
1936;DHT22;969;49.892;10.896;2023-07-20T11:41:54;26.30;44.80
1936;DHT22;969;49.892;10.896;2023-07-20T11:44:21;26.30;44.60
1936;DHT22;969;49.892;10.896;2023-07-20T11:47:02;26.30;44.60
1936;DHT22;969;49.892;10.896;2023-07-20T11:49:29;26.30;44.70
1936;DHT22;969;49.892;10.896;2023-07-20T11:51:55;26.30;44.50
1936;DHT22;969;49.892;10.896;2023-07-20T11:54:22;26.30;44.60
1936;DHT22;969;49.892;10.896;2023-07-20T11:56:48;26.20;44.80
1936;DHT22;969;49.892;10.896;2023-07-20T11:59:13;26.30;44.50
1936;DHT22;969;49.892;10.896;2023-07-20T12:01:39;26.30;44.60
1936;DHT22;969;49.892;10.896;2023-07-20T12:04:05;26.20;44.60
1936;DHT22;969;49.892;10.896;2023-07-20T12:06:32;26.30;44.60
1936;DHT22;969;49.892;10.896;2023-07-20T12:08:58;26.30;44.70
1936;DHT22;969;49.892;10.896;2023-07-20T12:11:39;26.30;44.70
1936;DHT22;969;49.892;10.896;2023-07-20T12:14:08;26.30;44.80
1936;DHT22;969;49.892;10.896;2023-07-20T12:16:35;26.30;44.80
1936;DHT22;969;49.892;10.896;2023-07-20T12:19:06;26.30;44.70
1936;DHT22;969;49.892;10.896;2023-07-20T12:21:33;26.30;44.60
1936;DHT22;969;49.892;10.896;2023-07-20T12:23:59;26.30;44.70
1936;DHT22;969;49.892;10.896;2023-07-20T12:26:25;26.30;44.80
1936;DHT22;969;49.892;10.896;2023-07-20T12:28:52;26.30;44.80
1936;DHT22;969;49.892;10.896;2023-07-20T12:31:17;26.20;44.50
1936;DHT22;969;49.892;10.896;2023-07-20T12:33:43;26.30;44.40
1936;DHT22;969;49.892;10.896;2023-07-20T12:36:09;26.30;44.20
1936;DHT22;969;49.892;10.896;2023-07-20T12:38:35;26.30;44.40
1936;DHT22;969;49.892;10.896;2023-07-20T12:41:02;26.20;44.40
1936;DHT22;969;49.892;10.896;2023-07-20T12:43:28;26.30;44.30
1936;DHT22;969;49.892;10.896;2023-07-20T12:45:55;26.30;44.40
1936;DHT22;969;49.892;10.896;2023-07-20T12:48:21;26.20;44.40
1936;DHT22;969;49.892;10.896;2023-07-20T12:50:46;26.20;44.40
1936;DHT22;969;49.892;10.896;2023-07-20T12:53:12;26.20;44.10
1936;DHT22;969;49.892;10.896;2023-07-20T12:55:38;26.20;43.80
1936;DHT22;969;49.892;10.896;2023-07-20T12:58:05;26.20;44.00
1936;DHT22;969;49.892;10.896;2023-07-20T13:00:30;26.20;44.30
1936;DHT22;969;49.892;10.896;2023-07-20T13:02:57;26.20;44.00
1936;DHT22;969;49.892;10.896;2023-07-20T13:05:23;26.20;43.90
1936;DHT22;969;49.892;10.896;2023-07-20T13:07:49;26.20;44.00
1936;DHT22;969;49.892;10.896;2023-07-20T13:10:14;26.20;43.80
1936;DHT22;969;49.892;10.896;2023-07-20T13:12:40;26.20;43.80
1936;DHT22;969;49.892;10.896;2023-07-20T13:15:08;26.20;43.90
1936;DHT22;969;49.892;10.896;2023-07-20T13:17:35;26.20;44.00
1936;DHT22;969;49.892;10.896;2023-07-20T13:20:01;26.20;44.00
1936;DHT22;969;49.892;10.896;2023-07-20T13:22:28;26.20;43.90
1936;DHT22;969;49.892;10.896;2023-07-20T13:24:53;26.20;44.20
1936;DHT22;969;49.892;10.896;2023-07-20T13:27:19;26.20;44.20
1936;DHT22;969;49.892;10.896;2023-07-20T13:29:45;26.20;44.40
1936;DHT22;969;49.892;10.896;2023-07-20T13:32:15;26.20;44.20
1936;DHT22;969;49.892;10.896;2023-07-20T13:34:41;26.20;44.20
1936;DHT22;969;49.892;10.896;2023-07-20T13:37:06;26.30;44.20
1936;DHT22;969;49.892;10.896;2023-07-20T13:39:32;26.30;44.10
1936;DHT22;969;49.892;10.896;2023-07-20T13:41:57;26.30;44.20
1936;DHT22;969;49.892;10.896;2023-07-20T13:44:23;26.30;44.10
1936;DHT22;969;49.892;10.896;2023-07-20T13:46:49;26.20;44.00
1936;DHT22;969;49.892;10.896;2023-07-20T13:49:15;26.20;44.00
1936;DHT22;969;49.892;10.896;2023-07-20T13:51:44;26.30;43.70
1936;DHT22;969;49.892;10.896;2023-07-20T13:54:10;26.30;43.50
1936;DHT22;969;49.892;10.896;2023-07-20T13:56:35;26.20;43.30
1936;DHT22;969;49.892;10.896;2023-07-20T13:59:01;26.30;43.60
1936;DHT22;969;49.892;10.896;2023-07-20T14:01:27;26.20;43.70
1936;DHT22;969;49.892;10.896;2023-07-20T14:03:55;26.20;43.40
1936;DHT22;969;49.892;10.896;2023-07-20T14:06:21;26.20;43.70
1936;DHT22;969;49.892;10.896;2023-07-20T14:08:47;26.30;43.70
1936;DHT22;969;49.892;10.896;2023-07-20T14:11:14;26.30;44.00
1936;DHT22;969;49.892;10.896;2023-07-20T14:13:39;26.30;43.90
1936;DHT22;969;49.892;10.896;2023-07-20T14:16:05;26.30;44.00
1936;DHT22;969;49.892;10.896;2023-07-20T14:18:31;26.30;43.30
1936;DHT22;969;49.892;10.896;2023-07-20T14:20:57;26.30;43.20
1936;DHT22;969;49.892;10.896;2023-07-20T14:23:23;26.20;43.10
1936;DHT22;969;49.892;10.896;2023-07-20T14:25:48;26.20;43.50
1936;DHT22;969;49.892;10.896;2023-07-20T14:28:14;26.20;43.70
1936;DHT22;969;49.892;10.896;2023-07-20T14:30:41;26.20;43.20
1936;DHT22;969;49.892;10.896;2023-07-20T14:33:07;26.20;42.90
1936;DHT22;969;49.892;10.896;2023-07-20T14:35:33;26.20;42.80
1936;DHT22;969;49.892;10.896;2023-07-20T14:37:59;26.20;43.10
1936;DHT22;969;49.892;10.896;2023-07-20T14:40:25;26.20;43.10
1936;DHT22;969;49.892;10.896;2023-07-20T14:42:50;26.20;43.10
1936;DHT22;969;49.892;10.896;2023-07-20T14:45:17;26.20;43.50
1936;DHT22;969;49.892;10.896;2023-07-20T14:47:43;26.20;43.20
1936;DHT22;969;49.892;10.896;2023-07-20T14:50:09;26.20;43.30
1936;DHT22;969;49.892;10.896;2023-07-20T14:52:35;26.20;43.10
1936;DHT22;969;49.892;10.896;2023-07-20T14:55:00;26.20;43.30
1936;DHT22;969;49.892;10.896;2023-07-20T14:57:26;26.20;43.30
1936;DHT22;969;49.892;10.896;2023-07-20T14:59:52;26.20;43.40
1936;DHT22;969;49.892;10.896;2023-07-20T15:02:18;26.20;43.40
1936;DHT22;969;49.892;10.896;2023-07-20T15:04:50;26.20;43.20
1936;DHT22;969;49.892;10.896;2023-07-20T15:07:20;26.30;43.20
1936;DHT22;969;49.892;10.896;2023-07-20T15:09:49;26.20;43.30
1936;DHT22;969;49.892;10.896;2023-07-20T15:12:15;26.30;43.50
1936;DHT22;969;49.892;10.896;2023-07-20T15:14:41;26.20;44.20
1936;DHT22;969;49.892;10.896;2023-07-20T15:17:08;26.20;43.60
1936;DHT22;969;49.892;10.896;2023-07-20T15:19:34;26.20;43.60
1936;DHT22;969;49.892;10.896;2023-07-20T15:22:01;26.20;43.70
1936;DHT22;969;49.892;10.896;2023-07-20T15:24:29;26.30;44.00
1936;DHT22;969;49.892;10.896;2023-07-20T15:26:54;26.30;44.10
1936;DHT22;969;49.892;10.896;2023-07-20T15:29:20;26.30;44.10
1936;DHT22;969;49.892;10.896;2023-07-20T15:31:46;26.30;44.20
1936;DHT22;969;49.892;10.896;2023-07-20T15:34:12;26.30;44.20
1936;DHT22;969;49.892;10.896;2023-07-20T15:36:39;26.30;44.30
1936;DHT22;969;49.892;10.896;2023-07-20T15:39:06;26.30;44.30
1936;DHT22;969;49.892;10.896;2023-07-20T15:41:31;26.30;44.30
1936;DHT22;969;49.892;10.896;2023-07-20T15:43:57;26.30;44.30
1936;DHT22;969;49.892;10.896;2023-07-20T15:48:48;26.30;44.20
1936;DHT22;969;49.892;10.896;2023-07-20T15:51:14;26.30;44.20
1936;DHT22;969;49.892;10.896;2023-07-20T15:53:39;26.30;43.90
1936;DHT22;969;49.892;10.896;2023-07-20T15:56:05;26.30;43.90
1936;DHT22;969;49.892;10.896;2023-07-20T15:58:32;26.30;43.90
1936;DHT22;969;49.892;10.896;2023-07-20T16:00:58;26.30;44.00
1936;DHT22;969;49.892;10.896;2023-07-20T16:03:23;26.30;44.10
1936;DHT22;969;49.892;10.896;2023-07-20T16:05:53;26.30;44.20
1936;DHT22;969;49.892;10.896;2023-07-20T16:08:19;26.30;44.20
1936;DHT22;969;49.892;10.896;2023-07-20T16:10:44;26.30;44.30
1936;DHT22;969;49.892;10.896;2023-07-20T16:13:10;26.30;44.30
1936;DHT22;969;49.892;10.896;2023-07-20T16:15:35;26.30;44.40